createdAt,value
2022-10-01T00:01:02.668Z,100989.34
2022-10-01T00:03:50.330Z,100994.75
2022-10-01T00:06:30.465Z,100994.31
2022-10-01T00:09:17.417Z,100988.59
2022-10-01T00:11:59.856Z,101004.00
2022-10-01T00:14:46.321Z,100998.06
2022-10-01T00:17:36.448Z,101002.44
2022-10-01T00:20:16.718Z,101003.00
2022-10-01T00:23:03.463Z,100995.53
2022-10-01T00:25:52.243Z,101010.75
2022-10-01T00:28:39.389Z,101014.28
2022-10-01T00:31:27.433Z,101007.31
2022-10-01T00:34:14.292Z,101014.81
2022-10-01T00:37:01.308Z,101019.03
2022-10-01T00:39:41.722Z,101006.91
2022-10-01T00:42:37.318Z,101012.56
2022-10-01T00:45:17.858Z,101009.34
2022-10-01T00:48:12.377Z,101020.59
2022-10-01T00:50:59.295Z,101021.03
2022-10-01T00:53:46.285Z,101012.38
2022-10-01T00:56:26.965Z,101018.94
2022-10-01T00:59:13.286Z,101018.94
2022-10-01T01:02:00.321Z,101027.78
2022-10-01T01:04:40.474Z,101022.78
2022-10-01T01:07:28.326Z,101015.66
2022-10-01T01:10:10.533Z,101017.72
2022-10-01T01:13:36.256Z,101013.31
2022-10-01T01:16:22.443Z,101003.22
2022-10-01T01:19:11.239Z,101001.97
2022-10-01T01:22:07.263Z,100998.00
2022-10-01T01:25:29.341Z,101009.09
2022-10-01T01:28:31.305Z,101005.84
2022-10-01T01:34:10.295Z,100997.31
2022-10-01T01:37:11.253Z,100988.47
2022-10-01T01:40:02.326Z,100992.34
2022-10-01T01:42:45.460Z,100990.69
2022-10-01T01:45:37.340Z,100986.69
2022-10-01T01:48:24.209Z,100984.97
2022-10-01T01:51:39.247Z,100984.97
2022-10-01T01:54:26.203Z,100997.34
2022-10-01T01:57:08.345Z,100990.13
2022-10-01T01:59:56.195Z,100991.28
2022-10-01T02:02:50.309Z,100995.63
2022-10-01T02:05:36.302Z,100987.34
2022-10-01T02:08:50.223Z,100988.88
2022-10-01T02:11:45.196Z,100997.28
2022-10-01T02:14:51.227Z,101001.84
2022-10-01T02:17:34.316Z,101003.13
2022-10-01T02:20:33.177Z,101006.53
2022-10-01T02:23:17.355Z,101008.41
2022-10-01T02:26:09.169Z,101003.00
2022-10-01T02:29:07.242Z,101002.28
2022-10-01T02:31:56.324Z,100998.50
2022-10-01T02:34:38.321Z,100994.78
2022-10-01T02:37:30.195Z,101003.44
2022-10-01T02:40:13.864Z,101002.72
2022-10-01T02:43:06.231Z,101007.09
2022-10-01T02:45:48.328Z,101006.69
2022-10-01T02:48:35.255Z,101004.56
2022-10-01T02:51:27.533Z,101005.31
2022-10-01T02:54:24.235Z,101006.38
2022-10-01T02:57:30.177Z,101011.50
2022-10-01T03:00:22.149Z,101001.06
2022-10-01T03:03:09.144Z,101014.53
2022-10-01T03:05:56.138Z,101018.06
2022-10-01T03:26:00.006Z,101010.66
2022-10-01T03:28:40.390Z,101014.47
2022-10-01T03:31:27.064Z,101015.63
2022-10-01T03:34:14.085Z,101028.13
2022-10-01T03:37:01.041Z,101027.09
2022-10-01T03:39:41.413Z,101037.41
2022-10-01T03:42:27.996Z,101040.69
2022-10-01T03:45:08.838Z,101043.00
2022-10-01T03:47:55.977Z,101041.63
2022-10-01T03:50:43.020Z,101040.00
2022-10-01T03:53:30.007Z,101042.78
2022-10-01T03:56:17.039Z,101044.63
2022-10-01T04:09:10.018Z,101047.31
2022-10-01T04:11:56.957Z,101049.13
2022-10-01T04:14:37.355Z,101056.78
2022-10-01T04:17:24.016Z,101066.44
2022-10-01T04:20:04.677Z,101066.84
2022-10-01T04:22:54.949Z,101067.81
2022-10-01T04:25:42.110Z,101063.16
2022-10-01T04:28:22.987Z,101073.94
2022-10-01T04:31:22.993Z,101069.69
2022-10-01T04:34:10.913Z,101069.41
2022-10-01T04:36:57.989Z,101063.75
2022-10-01T04:39:45.241Z,101067.06
2022-10-01T04:42:32.033Z,101061.94
2022-10-01T04:45:13.672Z,101045.84
2022-10-01T04:48:02.935Z,101050.22
2022-10-01T04:50:43.244Z,101056.56
2022-10-01T04:53:29.919Z,101050.03
2022-10-01T04:56:16.918Z,101048.34
2022-10-01T04:58:57.305Z,101043.06
2022-10-01T05:01:44.077Z,101055.56
2022-10-01T05:04:24.277Z,101053.94
2022-10-01T05:07:10.899Z,101055.38
2022-10-01T05:09:57.963Z,101058.44
2022-10-01T05:12:37.990Z,101067.75
2022-10-01T05:15:25.884Z,101064.44
2022-10-01T05:18:06.050Z,101070.38
2022-10-01T05:20:52.883Z,101068.56
2022-10-01T05:23:33.346Z,101070.72
2022-10-01T05:26:19.866Z,101071.81
2022-10-01T05:29:06.946Z,101066.00
2022-10-01T05:31:47.521Z,101059.78
2022-10-01T05:34:33.885Z,101063.44
2022-10-01T05:37:15.204Z,101074.75
2022-10-01T05:40:01.868Z,101084.94
2022-10-01T05:42:46.956Z,101080.53
2022-10-01T05:45:34.004Z,101084.22
2022-10-01T05:48:14.306Z,101085.19
2022-10-01T05:51:01.060Z,101087.75
2022-10-01T05:53:41.358Z,101091.66
2022-10-01T05:56:27.893Z,101101.72
2022-10-01T05:59:08.327Z,101096.41
2022-10-01T06:01:55.012Z,101097.66
2022-10-01T06:04:40.295Z,101101.94
2022-10-01T06:07:27.854Z,101115.41
2022-10-01T06:10:15.883Z,101112.28
2022-10-01T06:13:03.817Z,101112.22
2022-10-01T06:15:52.838Z,101095.31
2022-10-01T06:18:33.035Z,101097.22
2022-10-01T06:21:19.815Z,101092.59
2022-10-01T06:24:07.928Z,101088.22
2022-10-01T06:26:55.807Z,101095.63
2022-10-01T06:29:42.821Z,101081.34
2022-10-01T06:32:34.147Z,101074.88
2022-10-01T06:35:14.928Z,101079.53
2022-10-01T06:38:01.833Z,101072.84
2022-10-01T06:40:41.925Z,101069.75
2022-10-01T06:43:29.886Z,101073.59
2022-10-01T06:46:13.021Z,101067.66
2022-10-01T06:48:59.794Z,101069.50
2022-10-01T06:52:07.263Z,101070.50
2022-10-01T06:54:56.542Z,101068.22
2022-10-01T06:57:36.883Z,101064.53
2022-10-01T07:00:23.825Z,101059.44
2022-10-01T07:03:03.916Z,101062.06
2022-10-01T07:05:51.775Z,101060.94
2022-10-01T07:08:33.318Z,101069.94
2022-10-01T07:11:20.777Z,101061.66
2022-10-01T07:14:02.261Z,101071.72
2022-10-01T07:16:48.829Z,101061.41
2022-10-01T07:19:28.897Z,101064.69
2022-10-01T07:22:15.976Z,101068.31
2022-10-01T07:25:02.815Z,101067.78
2022-10-01T07:27:43.329Z,101077.31
2022-10-01T07:30:30.772Z,101086.53
2022-10-01T07:33:11.170Z,101073.03
2022-10-01T07:35:57.828Z,101079.88
2022-10-01T07:38:46.110Z,101086.22
2022-10-01T07:41:25.737Z,101081.59
2022-10-01T07:44:06.215Z,101086.13
2022-10-01T07:46:53.758Z,101078.63
2022-10-01T07:49:34.184Z,101089.91
2022-10-01T07:52:20.742Z,101088.66
2022-10-01T07:55:01.215Z,101084.94
2022-10-01T07:57:47.770Z,101085.59
2022-10-01T08:00:30.317Z,101085.69
2022-10-01T08:03:18.812Z,101081.69
2022-10-01T08:06:05.959Z,101095.50
2022-10-01T08:08:46.465Z,101093.53
2022-10-01T08:11:33.032Z,101090.44
2022-10-01T08:14:13.948Z,101081.94
2022-10-01T08:17:04.731Z,101069.91
2022-10-01T08:19:45.323Z,101074.72
2022-10-01T08:22:32.686Z,101068.00
2022-10-01T08:25:26.672Z,101067.94
2022-10-01T08:28:14.742Z,101069.28
2022-10-01T08:31:02.705Z,101069.66
2022-10-01T08:33:43.284Z,101067.00
2022-10-01T08:36:29.696Z,101072.09
2022-10-01T08:39:19.660Z,101067.13
2022-10-01T08:42:19.698Z,101053.53
2022-10-01T08:45:04.502Z,101036.69
2022-10-01T08:47:59.691Z,101039.16
2022-10-01T08:51:00.182Z,101032.47
2022-10-01T08:53:46.695Z,101041.59
2022-10-01T08:56:47.718Z,101051.34
2022-10-01T08:59:48.777Z,101053.19
2022-10-01T09:02:31.933Z,101052.03
2022-10-01T09:05:35.695Z,101055.09
2022-10-01T09:08:52.681Z,101049.53
2022-10-01T09:11:46.770Z,101041.66
2022-10-01T09:14:36.676Z,101035.41
2022-10-01T09:18:02.650Z,101033.38
2022-10-01T09:20:58.649Z,101036.72
2022-10-01T09:23:58.660Z,101033.94
2022-10-01T09:26:57.649Z,101035.97
2022-10-01T09:29:48.115Z,101030.81
2022-10-01T09:32:43.678Z,101029.72
2022-10-01T09:35:39.659Z,101029.69
2022-10-01T09:38:47.726Z,101017.69
2022-10-01T09:41:34.861Z,101015.88
2022-10-01T09:44:23.733Z,101024.75
2022-10-01T09:47:23.652Z,101026.06
2022-10-01T09:50:17.629Z,101042.69
2022-10-01T09:53:06.643Z,101035.56
2022-10-01T09:55:50.721Z,101038.00
2022-10-01T09:58:41.604Z,101023.25
2022-10-01T10:01:40.629Z,101031.66
2022-10-01T10:04:23.687Z,101031.63
2022-10-01T10:07:08.640Z,101026.19
2022-10-01T10:09:48.713Z,101027.41
2022-10-01T10:12:37.624Z,101027.97
2022-10-01T10:15:26.243Z,101015.00
2022-10-01T10:18:24.638Z,101016.25
2022-10-01T10:21:08.054Z,101005.63
2022-10-01T10:24:05.585Z,101009.75
2022-10-01T10:27:09.639Z,101007.13
2022-10-01T10:29:49.989Z,100988.47
2022-10-01T10:32:40.618Z,100987.72
2022-10-01T10:35:26.215Z,100983.84
2022-10-01T10:38:12.578Z,100993.91
2022-10-01T10:40:59.614Z,100995.03
2022-10-01T10:43:51.589Z,100976.41
2022-10-01T10:46:46.432Z,100984.19
2022-10-01T10:49:46.554Z,100980.53
2022-10-01T10:52:33.808Z,100972.75
2022-10-01T10:55:32.559Z,100972.50
2022-10-01T10:58:21.567Z,100964.22
2022-10-01T11:01:03.709Z,100959.56
2022-10-01T11:03:59.548Z,100955.44
2022-10-01T11:06:39.910Z,100942.38
2022-10-01T11:09:26.545Z,100941.00
2022-10-01T11:12:12.664Z,100940.19
2022-10-01T11:15:18.541Z,100921.19
2022-10-01T11:18:17.545Z,100918.06
2022-10-01T11:21:45.199Z,100900.22
2022-10-01T11:24:40.554Z,100897.19
2022-10-01T11:27:48.691Z,100887.28
2022-10-01T11:30:36.541Z,100881.53
2022-10-01T11:33:55.569Z,100878.53
2022-10-01T11:37:01.316Z,100881.81
2022-10-01T11:39:52.517Z,100866.06
2022-10-01T11:42:40.648Z,100872.69
2022-10-01T11:45:38.528Z,100860.72
2022-10-01T11:48:44.572Z,100836.31
2022-10-01T11:51:34.143Z,100822.91
2022-10-01T11:54:27.526Z,100822.13
2022-10-01T11:57:32.900Z,100816.41
2022-10-01T12:00:24.058Z,100848.25
2022-10-01T12:03:16.812Z,100854.69
2022-10-01T12:06:05.513Z,100877.88
2022-10-01T12:08:53.265Z,100874.91
2022-10-01T12:11:43.514Z,100856.66
2022-10-01T12:14:37.497Z,100853.25
2022-10-01T12:17:28.544Z,100857.34
2022-10-01T12:20:19.521Z,100877.88
2022-10-01T12:23:09.468Z,100869.13
2022-10-01T12:26:18.475Z,100865.50
2022-10-01T12:29:37.563Z,100847.63
2022-10-01T12:32:18.501Z,100831.75
2022-10-01T12:35:04.233Z,100836.09
2022-10-01T12:37:53.457Z,100834.53
2022-10-01T12:40:48.156Z,100826.81
2022-10-01T12:43:42.453Z,100825.19
2022-10-01T12:46:40.557Z,100811.63
2022-10-01T12:49:49.478Z,100806.66
2022-10-01T12:52:56.462Z,100815.59
2022-10-01T12:55:56.631Z,100813.47
2022-10-01T12:59:00.458Z,100814.94
2022-10-01T13:02:06.474Z,100816.31
2022-10-01T13:05:15.449Z,100809.97
2022-10-01T13:08:09.466Z,100796.22
2022-10-01T13:11:14.570Z,100799.75
2022-10-01T13:13:56.379Z,100802.44
2022-10-01T13:16:56.470Z,100799.69
2022-10-01T13:20:02.502Z,100796.28
2022-10-01T13:22:57.556Z,100777.09
2022-10-01T13:25:55.410Z,100790.13
2022-10-01T13:28:54.435Z,100772.94
2022-10-01T13:31:43.519Z,100764.19
2022-10-01T13:34:49.442Z,100776.34
2022-10-01T13:37:36.425Z,100771.56
2022-10-01T13:40:47.436Z,100775.47
2022-10-01T13:43:30.216Z,100770.63
2022-10-01T13:46:24.530Z,100756.69
2022-10-01T13:49:32.366Z,100754.22
2022-10-01T13:52:34.439Z,100750.59
2022-10-01T13:55:30.423Z,100747.72
2022-10-01T13:58:20.458Z,100756.97
2022-10-01T14:01:19.997Z,100749.31
2022-10-01T14:04:41.590Z,100744.16
2022-10-01T14:07:28.066Z,100743.69
2022-10-01T14:10:15.828Z,100749.06
2022-10-01T14:13:16.404Z,100746.59
2022-10-01T14:16:07.464Z,100757.13
2022-10-01T14:18:50.149Z,100748.28
2022-10-01T14:21:52.393Z,100747.56
2022-10-01T14:25:28.398Z,100737.16
2022-10-01T14:28:23.680Z,100739.63
2022-10-01T14:31:10.433Z,100734.41
2022-10-01T14:34:03.397Z,100725.16
2022-10-01T14:36:50.452Z,100719.09
2022-10-01T14:39:37.557Z,100719.16
2022-10-01T14:42:23.532Z,100718.41
2022-10-01T14:45:24.573Z,100691.91
2022-10-01T14:48:18.425Z,100679.44
2022-10-01T14:51:11.372Z,100684.66
2022-10-01T14:53:51.541Z,100670.97
2022-10-01T14:56:39.315Z,100662.53
2022-10-01T14:59:44.445Z,100674.59
2022-10-01T15:02:33.328Z,100669.78
2022-10-01T15:05:41.561Z,100677.00
2022-10-01T15:08:43.285Z,100667.38
2022-10-01T15:27:56.579Z,100625.44
2022-10-01T15:30:43.582Z,100616.66
2022-10-01T15:33:50.852Z,100611.88
2022-10-01T15:36:31.033Z,100617.88
2022-10-01T15:39:37.440Z,100629.94
2022-10-01T15:43:02.289Z,100619.50
2022-10-01T15:45:42.612Z,100618.25
2022-10-01T15:48:39.449Z,100609.44
2022-10-01T15:51:41.303Z,100595.00
2022-10-01T15:54:22.483Z,100582.13
2022-10-01T15:57:09.284Z,100584.53
2022-10-01T15:59:55.651Z,100579.72
2022-10-01T16:02:47.507Z,100578.53
2022-10-01T16:06:03.284Z,100568.91
2022-10-01T16:08:58.010Z,100553.63
2022-10-01T16:11:45.246Z,100551.63
2022-10-01T16:14:34.815Z,100569.28
2022-10-01T16:17:33.229Z,100574.09
2022-10-01T16:20:51.280Z,100559.25
2022-10-01T16:23:54.232Z,100536.34
2022-10-01T16:26:50.213Z,100525.09
2022-10-01T16:29:37.255Z,100521.88
2022-10-01T16:32:21.390Z,100536.72
2022-10-01T16:35:22.282Z,100539.53
2022-10-01T16:38:15.231Z,100534.28
2022-10-01T16:40:55.674Z,100537.09
2022-10-01T16:43:42.229Z,100524.63
2022-10-01T16:46:22.787Z,100512.16
2022-10-01T16:49:09.188Z,100522.16
2022-10-01T16:51:59.218Z,100520.13
2022-10-01T16:54:46.225Z,100514.91
2022-10-01T16:57:33.212Z,100512.53
2022-10-01T17:00:21.187Z,100512.53
2022-10-01T17:03:08.219Z,100511.34
2022-10-01T17:05:50.303Z,100518.09
2022-10-01T17:08:37.216Z,100512.53
2022-10-01T17:11:18.269Z,100512.53
2022-10-01T17:14:05.162Z,100509.72
2022-10-01T17:16:52.179Z,100508.09
2022-10-01T17:19:32.733Z,100501.31
2022-10-01T17:22:19.183Z,100504.50
2022-10-01T17:24:59.645Z,100488.09
2022-10-01T17:27:47.312Z,100483.28
2022-10-01T17:30:29.361Z,100486.88
2022-10-01T17:33:16.163Z,100477.59
2022-10-01T17:35:56.558Z,100491.69
2022-10-01T17:38:43.157Z,100486.06
2022-10-01T17:41:23.563Z,100479.25
2022-10-01T17:44:11.167Z,100468.44
2022-10-01T17:46:51.635Z,100464.81
2022-10-01T17:49:38.153Z,100452.81
2022-10-01T17:52:19.103Z,100457.59
2022-10-01T17:55:06.179Z,100452.78
2022-10-01T17:58:00.264Z,100447.16
2022-10-01T18:00:48.176Z,100431.13
2022-10-01T18:03:29.375Z,100429.50
2022-10-01T18:06:23.142Z,100427.88
2022-10-01T18:09:10.138Z,100424.69
2022-10-01T18:11:57.092Z,100422.28
2022-10-01T18:14:37.268Z,100420.28
2022-10-01T18:17:24.153Z,100409.84
2022-10-01T18:20:04.249Z,100408.28
2022-10-01T18:22:53.102Z,100407.03
2022-10-01T18:25:40.098Z,100411.03
2022-10-01T18:28:34.131Z,100412.22
2022-10-01T18:31:29.032Z,100408.19
2022-10-01T18:34:24.110Z,100400.13
2022-10-01T18:37:14.092Z,100398.53
2022-10-01T18:40:03.270Z,100388.53
2022-10-01T18:42:56.077Z,100389.28
2022-10-01T18:46:12.166Z,100387.28
2022-10-01T18:49:15.273Z,100384.09
2022-10-01T18:52:33.141Z,100370.81
2022-10-01T18:55:39.043Z,100367.63
2022-10-01T18:58:54.089Z,100355.63
2022-10-01T19:01:55.174Z,100346.38
2022-10-01T19:04:51.103Z,100343.56
2022-10-01T19:07:51.625Z,100334.34
2022-10-01T19:10:44.046Z,100334.72
2022-10-01T19:13:48.068Z,100327.44
2022-10-01T19:16:45.138Z,100316.63
2022-10-01T19:19:41.181Z,100315.06
2022-10-01T19:22:58.062Z,100295.44
2022-10-01T19:26:05.044Z,100298.63
2022-10-01T19:28:51.159Z,100298.56
2022-10-01T19:32:08.068Z,100281.75
2022-10-01T19:35:22.039Z,100260.50
2022-10-01T19:38:09.175Z,100241.63
2022-10-01T19:41:06.014Z,100238.84
2022-10-01T19:44:00.046Z,100240.84
2022-10-01T19:46:45.969Z,100236.06
2022-10-01T19:49:48.992Z,100235.25
2022-10-01T19:52:45.032Z,100229.66
2022-10-01T19:55:29.882Z,100214.84
2022-10-01T19:58:28.062Z,100217.63
2022-10-01T20:01:10.198Z,100225.22
2022-10-01T20:04:08.076Z,100212.44
2022-10-01T20:07:01.999Z,100210.81
2022-10-01T20:09:58.667Z,100210.41
2022-10-01T20:13:13.144Z,100209.22
2022-10-01T20:16:16.037Z,100206.41
2022-10-01T20:19:05.293Z,100204.00
2022-10-01T20:22:28.961Z,100200.81
2022-10-01T20:25:41.995Z,100197.19
2022-10-01T20:28:40.172Z,100189.97
2022-10-01T20:31:46.073Z,100185.97
2022-10-01T20:35:07.982Z,100185.19
2022-10-01T20:38:32.968Z,100194.75
2022-10-01T20:41:23.985Z,100196.75
2022-10-01T20:44:09.887Z,100198.34
2022-10-01T20:47:33.994Z,100200.38
2022-10-01T20:50:36.240Z,100197.94
2022-10-01T20:53:53.980Z,100185.53
2022-10-01T20:57:09.030Z,100169.09
2022-10-01T21:00:04.971Z,100162.69
2022-10-01T21:03:25.191Z,100156.28
2022-10-01T21:06:14.318Z,100154.31
2022-10-01T21:09:35.013Z,100150.28
2022-10-01T21:12:40.964Z,100138.66
2022-10-01T21:15:21.050Z,100139.47
2022-10-01T21:18:17.939Z,100131.09
2022-10-01T21:21:05.006Z,100126.34
2022-10-01T21:24:25.043Z,100119.94
2022-10-01T21:27:24.889Z,100114.38
2022-10-01T21:30:18.902Z,100109.56
2022-10-01T21:33:31.189Z,100108.75
2022-10-01T21:36:39.877Z,100124.78
2022-10-01T21:39:36.178Z,100115.56
2022-10-01T21:42:22.458Z,100113.56
2022-10-01T21:45:43.943Z,100108.75
2022-10-01T21:48:33.261Z,100112.34
2022-10-01T21:51:31.966Z,100116.34
2022-10-01T21:54:22.302Z,100113.56
2022-10-01T21:57:34.917Z,100117.94
2022-10-01T22:00:33.022Z,100103.50
2022-10-01T22:03:19.784Z,100098.69
2022-10-01T22:06:21.260Z,100089.06
2022-10-01T22:09:10.028Z,100085.47
2022-10-01T22:12:00.950Z,100069.06
2022-10-01T22:14:41.962Z,100063.47
2022-10-01T22:17:33.919Z,100069.84
2022-10-01T22:20:21.837Z,100063.84
2022-10-01T22:23:15.884Z,100066.28
2022-10-01T22:26:27.995Z,100065.84
2022-10-01T22:29:22.934Z,100058.25
2022-10-01T22:32:10.016Z,100063.06
2022-10-01T22:35:07.980Z,100051.06
2022-10-01T22:38:04.842Z,100044.66
2022-10-01T22:40:51.789Z,100033.06
2022-10-01T22:43:38.846Z,100031.47
2022-10-01T22:46:25.281Z,100027.47
2022-10-01T22:49:17.822Z,100024.63
2022-10-01T22:52:31.075Z,100030.28
2022-10-01T22:55:25.119Z,100016.63
2022-10-01T22:58:37.822Z,100013.81
2022-10-01T23:01:36.832Z,100001.41
2022-10-01T23:04:48.804Z,100003.38
2022-10-01T23:07:41.807Z,100004.56
2022-10-01T23:10:28.916Z,99998.94
2022-10-01T23:13:40.809Z,100009.78
2022-10-01T23:17:00.818Z,99985.28
2022-10-01T23:20:15.041Z,99968.84
2022-10-01T23:22:57.998Z,99963.53
2022-10-01T23:26:37.125Z,99959.00
2022-10-01T23:29:52.766Z,99960.84
2022-10-01T23:33:06.799Z,99976.00
2022-10-01T23:35:53.797Z,99991.50
2022-10-01T23:38:46.396Z,100016.81
2022-10-01T23:41:42.768Z,100052.53
2022-10-01T23:44:41.737Z,100059.38
2022-10-01T23:47:35.764Z,100045.47
2022-10-01T23:50:29.474Z,100028.47
2022-10-01T23:53:26.809Z,100003.06
2022-10-01T23:56:37.000Z,99991.34
2022-10-01T23:59:46.747Z,99980.47
